createdAt,value
2018-06-24T00:04:38.635Z,11.90
2018-06-24T00:07:07.193Z,11.90
2018-06-24T00:09:35.773Z,11.80
2018-06-24T00:12:04.497Z,11.90
2018-06-24T00:14:33.099Z,11.90
2018-06-24T00:17:01.725Z,11.80
2018-06-24T00:19:30.256Z,11.80
2018-06-24T00:21:58.926Z,11.80
2018-06-24T00:24:27.593Z,11.80
2018-06-24T00:26:56.246Z,11.80
2018-06-24T00:29:24.828Z,11.80
2018-06-24T00:31:53.466Z,11.80
2018-06-24T00:34:22.111Z,11.80
2018-06-24T00:36:50.682Z,11.80
2018-06-24T00:39:19.348Z,11.80
2018-06-24T00:41:47.951Z,11.80
2018-06-24T00:46:44.896Z,11.80
2018-06-24T00:49:13.455Z,11.80
2018-06-24T00:51:42.094Z,11.80
2018-06-24T00:56:39.145Z,11.80
2018-06-24T00:59:08.218Z,11.70
2018-06-24T01:01:36.853Z,11.70
2018-06-24T01:04:05.478Z,11.70
2018-06-24T01:06:34.048Z,11.70
2018-06-24T01:09:02.646Z,11.80
2018-06-24T01:11:31.287Z,11.70
2018-06-24T01:14:00.720Z,11.70
2018-06-24T01:16:30.696Z,11.70
2018-06-24T01:19:00.332Z,11.70
2018-06-24T01:21:30.217Z,11.70
2018-06-24T01:23:59.144Z,11.70
2018-06-24T01:26:27.802Z,11.70
2018-06-24T01:28:56.371Z,11.70
2018-06-24T01:31:24.993Z,11.70
2018-06-24T01:33:53.539Z,11.70
2018-06-24T01:36:22.121Z,11.70
2018-06-24T01:38:50.721Z,11.70
2018-06-24T01:41:19.412Z,11.70
2018-06-24T01:43:47.994Z,11.70
2018-06-24T01:46:16.539Z,11.70
2018-06-24T01:51:13.570Z,11.60
2018-06-24T01:53:42.141Z,11.70
2018-06-24T01:56:10.667Z,11.70
2018-06-24T01:58:39.252Z,11.60
2018-06-24T02:03:36.099Z,11.60
2018-06-24T02:06:04.696Z,11.60
2018-06-24T02:08:33.268Z,11.60
2018-06-24T02:11:01.939Z,11.60
2018-06-24T02:13:31.302Z,11.60
2018-06-24T02:16:01.132Z,11.60
2018-06-24T02:18:30.680Z,11.60
2018-06-24T02:20:59.583Z,11.60
2018-06-24T02:25:57.256Z,11.60
2018-06-24T02:33:22.423Z,11.60
2018-06-24T02:35:51.031Z,11.60
2018-06-24T02:38:19.810Z,11.60
2018-06-24T02:40:48.398Z,11.60
2018-06-24T02:43:16.947Z,11.60
2018-06-24T02:45:45.541Z,11.60
2018-06-24T02:48:14.093Z,11.60
2018-06-24T02:53:10.979Z,11.60
2018-06-24T02:55:39.592Z,11.60
2018-06-24T02:58:08.196Z,11.60
2018-06-24T03:00:36.751Z,11.60
2018-06-24T03:03:05.315Z,11.50
2018-06-24T03:05:33.884Z,11.60
2018-06-24T03:10:31.719Z,11.50
2018-06-24T03:13:00.313Z,11.50
2018-06-24T03:15:29.689Z,11.50
2018-06-24T03:17:58.651Z,11.50
2018-06-24T03:20:28.210Z,11.60
2018-06-24T03:22:56.897Z,11.50
2018-06-24T03:25:25.518Z,11.50
2018-06-24T03:30:22.388Z,11.50
2018-06-24T03:32:50.941Z,11.50
2018-06-24T03:35:19.588Z,11.50
2018-06-24T03:37:48.196Z,11.50
2018-06-24T03:40:16.851Z,11.50
2018-06-24T03:42:45.542Z,11.50
2018-06-24T03:45:14.160Z,11.50
2018-06-24T03:50:11.036Z,11.50
2018-06-24T03:52:39.606Z,11.50
2018-06-24T03:55:08.201Z,11.50
2018-06-24T04:00:05.675Z,11.50
2018-06-24T04:05:02.721Z,11.50
2018-06-24T04:07:31.335Z,11.50
2018-06-24T04:10:00.020Z,11.50
2018-06-24T04:12:29.815Z,11.50
2018-06-24T04:17:26.864Z,11.60
2018-06-24T04:19:55.475Z,11.60
2018-06-24T04:22:24.071Z,11.60
2018-06-24T04:24:52.684Z,11.60
2018-06-24T04:27:21.327Z,11.60
2018-06-24T04:29:49.901Z,11.60
2018-06-24T04:32:18.516Z,11.60
2018-06-24T04:34:47.107Z,11.60
2018-06-24T04:37:15.644Z,11.60
2018-06-24T04:42:12.483Z,11.60
2018-06-24T04:44:41.056Z,11.70
2018-06-24T04:47:09.570Z,11.70
2018-06-24T04:54:34.835Z,11.70
2018-06-24T04:57:03.389Z,11.80
2018-06-24T05:02:00.197Z,11.80
2018-06-24T05:04:30.203Z,11.90
2018-06-24T05:06:59.325Z,11.90
2018-06-24T05:09:27.970Z,11.90
2018-06-24T05:11:57.191Z,11.90
2018-06-24T05:14:25.892Z,11.90
2018-06-24T05:16:55.251Z,11.90
2018-06-24T05:19:24.402Z,11.90
2018-06-24T05:21:53.894Z,12.00
2018-06-24T05:24:23.189Z,12.00
2018-06-24T05:26:52.246Z,12.00
2018-06-24T05:29:21.623Z,12.10
2018-06-24T05:31:50.276Z,12.10
2018-06-24T05:34:18.878Z,12.10
2018-06-24T05:36:47.718Z,12.10
2018-06-24T05:39:16.679Z,12.20
2018-06-24T05:41:45.772Z,12.20
2018-06-24T05:44:15.297Z,12.20
2018-06-24T05:46:44.585Z,12.30
2018-06-24T05:49:13.694Z,12.30
2018-06-24T05:51:42.624Z,12.30
2018-06-24T05:54:11.583Z,12.40
2018-06-24T05:56:41.176Z,12.40
2018-06-24T05:59:10.314Z,12.40
2018-06-24T06:01:39.000Z,12.40
2018-06-24T06:04:07.655Z,12.40
2018-06-24T06:06:36.411Z,12.40
2018-06-24T06:11:35.819Z,12.40
2018-06-24T06:14:04.528Z,12.50
2018-06-24T06:16:33.214Z,12.50
2018-06-24T06:21:30.550Z,12.50
2018-06-24T06:23:59.175Z,12.50
2018-06-24T06:26:27.963Z,12.50
2018-06-24T06:28:56.541Z,12.40
2018-06-24T06:33:53.582Z,12.40
2018-06-24T06:36:22.385Z,12.40
2018-06-24T06:41:19.690Z,12.40
2018-06-24T06:43:48.475Z,12.40
2018-06-24T06:46:17.061Z,12.40
2018-06-24T06:48:45.804Z,12.40
2018-06-24T06:51:14.343Z,12.40
2018-06-24T06:53:42.922Z,12.40
2018-06-24T06:56:11.505Z,12.30
2018-06-24T06:58:40.851Z,12.20
2018-06-24T07:01:09.922Z,12.20
2018-06-24T07:03:38.532Z,12.20
2018-06-24T07:06:07.141Z,12.10
2018-06-24T07:08:35.708Z,12.10
2018-06-24T07:11:04.254Z,12.10
2018-06-24T07:13:32.798Z,12.10
2018-06-24T07:16:01.411Z,12.10
2018-06-24T07:18:30.280Z,12.10
2018-06-24T07:20:58.933Z,12.00
2018-06-24T07:25:55.861Z,12.00
2018-06-24T07:28:24.370Z,12.00
2018-06-24T07:35:49.522Z,12.00
2018-06-24T07:40:46.330Z,12.00
2018-06-24T07:43:14.919Z,12.10
2018-06-24T07:45:43.533Z,12.10
2018-06-24T07:50:40.356Z,12.10
2018-06-24T07:53:08.945Z,12.20
2018-06-24T07:55:37.506Z,12.20
2018-06-24T07:58:06.128Z,12.20
2018-06-24T08:00:34.640Z,12.30
2018-06-24T08:03:03.239Z,12.30
2018-06-24T08:05:32.828Z,12.40
2018-06-24T08:08:02.596Z,12.30
2018-06-24T08:10:33.506Z,12.30
2018-06-24T08:18:01.172Z,12.20
2018-06-24T08:20:31.697Z,12.20
2018-06-24T08:23:00.225Z,12.10
2018-06-24T08:25:28.801Z,12.10
2018-06-24T08:27:57.392Z,12.10
2018-06-24T08:30:25.988Z,12.00
2018-06-24T08:32:54.542Z,12.00
2018-06-24T08:35:23.111Z,12.10
2018-06-24T08:37:51.671Z,12.10
2018-06-24T08:42:48.571Z,12.10
2018-06-24T08:45:17.140Z,12.20
2018-06-24T08:47:45.678Z,12.30
2018-06-24T08:50:14.236Z,12.30
2018-06-24T08:52:42.789Z,12.40
2018-06-24T08:55:11.382Z,12.40
2018-06-24T08:57:40.132Z,12.50
2018-06-24T09:02:37.356Z,12.50
2018-06-24T09:05:05.972Z,12.50
2018-06-24T09:10:03.502Z,12.60
2018-06-24T09:12:33.273Z,12.60
2018-06-24T09:15:03.241Z,12.60
2018-06-24T09:17:33.146Z,12.60
2018-06-24T09:20:02.476Z,12.60
2018-06-24T09:22:31.099Z,12.70
2018-06-24T09:24:59.732Z,12.80
2018-06-24T09:27:28.273Z,12.90
2018-06-24T09:29:56.876Z,13.00
2018-06-24T09:32:25.511Z,13.10
2018-06-24T09:34:54.180Z,13.20
2018-06-24T09:37:22.728Z,13.30
2018-06-24T09:39:51.944Z,13.30
2018-06-24T09:42:20.486Z,13.40
2018-06-24T09:44:49.100Z,13.40
2018-06-24T09:47:17.659Z,13.50
2018-06-24T09:49:46.263Z,13.60
2018-06-24T09:52:14.892Z,13.60
2018-06-24T09:54:43.470Z,13.60
2018-06-24T09:57:12.006Z,13.60
2018-06-24T09:59:40.579Z,13.70
2018-06-24T10:02:09.138Z,13.70
2018-06-24T10:04:37.874Z,13.80
2018-06-24T10:07:07.227Z,13.90
2018-06-24T10:12:04.667Z,13.90
2018-06-24T10:14:33.253Z,14.00
2018-06-24T10:17:02.819Z,14.10
2018-06-24T10:19:32.148Z,14.20
2018-06-24T10:22:01.166Z,14.30
2018-06-24T10:24:29.739Z,14.40
2018-06-24T10:26:58.258Z,14.40
2018-06-24T10:29:26.872Z,14.50
2018-06-24T10:31:55.445Z,14.40
2018-06-24T10:34:24.016Z,14.40
2018-06-24T10:36:52.577Z,14.40
2018-06-24T10:39:21.149Z,14.50
2018-06-24T10:46:46.291Z,14.90
2018-06-24T10:49:14.859Z,14.90
2018-06-24T10:51:43.447Z,15.00
2018-06-24T10:54:11.995Z,15.10
2018-06-24T10:56:40.664Z,15.20
2018-06-24T10:59:09.299Z,15.20
2018-06-24T11:01:37.879Z,15.20
2018-06-24T11:06:35.060Z,15.20
2018-06-24T11:09:06.512Z,15.30
2018-06-24T11:16:33.530Z,15.50
2018-06-24T11:19:03.138Z,15.60
2018-06-24T11:21:32.713Z,15.40
2018-06-24T11:24:02.367Z,15.30
2018-06-24T11:26:31.571Z,15.20
2018-06-24T11:29:00.557Z,15.20
2018-06-24T11:31:29.173Z,15.30
2018-06-24T11:33:57.707Z,15.40
2018-06-24T11:36:26.300Z,15.40
2018-06-24T11:38:54.883Z,15.40
2018-06-24T11:41:23.403Z,15.50
2018-06-24T11:43:51.965Z,15.50
2018-06-24T11:46:20.504Z,15.60
2018-06-24T11:48:49.113Z,15.60
2018-06-24T11:51:17.691Z,15.60
2018-06-24T11:53:46.356Z,15.40
2018-06-24T11:56:15.047Z,15.30
2018-06-24T11:58:43.554Z,15.10
2018-06-24T12:01:12.184Z,15.10
2018-06-24T12:03:40.712Z,15.00
2018-06-24T12:06:09.989Z,15.10
2018-06-24T12:08:38.942Z,15.20
2018-06-24T12:11:07.782Z,15.20
2018-06-24T12:13:36.426Z,15.20
2018-06-24T12:16:05.123Z,15.20
2018-06-24T12:21:02.883Z,15.10
2018-06-24T12:23:31.949Z,15.10
2018-06-24T12:26:05.778Z,15.10
2018-06-24T12:28:36.915Z,15.10
2018-06-24T12:31:05.687Z,15.20
2018-06-24T12:33:35.614Z,15.20
2018-06-24T12:36:05.058Z,15.20
2018-06-24T12:38:35.663Z,15.10
2018-06-24T12:43:34.455Z,15.20
2018-06-24T12:46:04.423Z,15.30
2018-06-24T12:48:36.018Z,15.20
2018-06-24T12:53:35.755Z,14.90
2018-06-24T12:56:05.187Z,14.70
2018-06-24T13:01:08.158Z,14.40
2018-06-24T13:03:38.172Z,14.50
2018-06-24T13:06:06.915Z,14.60
2018-06-24T13:08:36.244Z,14.70
2018-06-24T13:11:06.066Z,14.70
2018-06-24T13:13:35.866Z,14.80
2018-06-24T13:18:35.199Z,14.90
2018-06-24T13:21:05.834Z,14.90
2018-06-24T13:26:06.070Z,14.90
2018-06-24T13:31:04.158Z,14.90
2018-06-24T13:33:34.583Z,14.80
2018-06-24T13:36:06.427Z,14.90
2018-06-24T13:38:36.536Z,14.90
2018-06-24T13:41:06.224Z,14.80
2018-06-24T13:43:35.587Z,14.80
2018-06-24T13:46:04.843Z,14.50
2018-06-24T13:51:07.175Z,14.20
2018-06-24T13:53:37.012Z,14.00
2018-06-24T13:56:06.692Z,13.90
2018-06-24T13:58:36.248Z,13.90
2018-06-24T14:01:07.937Z,13.90
2018-06-24T14:03:37.405Z,14.00
2018-06-24T14:06:06.840Z,14.10
2018-06-24T14:08:36.265Z,14.20
2018-06-24T14:11:05.456Z,14.30
2018-06-24T14:16:03.559Z,14.50
2018-06-24T14:18:33.017Z,14.60
2018-06-24T14:21:02.070Z,14.80
2018-06-24T14:23:31.995Z,14.80
2018-06-24T14:26:01.516Z,14.90
2018-06-24T14:28:32.274Z,14.90
2018-06-24T14:31:01.639Z,15.00
2018-06-24T14:33:33.469Z,15.00
2018-06-24T14:36:02.680Z,15.10
2018-06-24T14:38:31.861Z,15.10
2018-06-24T14:41:01.868Z,15.20
2018-06-24T14:43:30.999Z,15.40
2018-06-24T14:46:00.247Z,15.60
2018-06-24T14:48:29.495Z,15.70
2018-06-24T14:50:58.728Z,15.80
2018-06-24T14:53:28.142Z,15.80
2018-06-24T14:55:57.692Z,15.70
2018-06-24T14:58:26.812Z,15.60
2018-06-24T15:00:57.106Z,15.50
2018-06-24T15:03:27.125Z,15.40
2018-06-24T15:08:25.397Z,15.40
2018-06-24T15:10:54.525Z,15.30
2018-06-24T15:13:24.149Z,15.30
2018-06-24T15:15:53.503Z,15.10
2018-06-24T15:18:23.380Z,15.10
2018-06-24T15:20:53.082Z,15.00
2018-06-24T15:23:22.410Z,14.90
2018-06-24T15:25:52.406Z,14.90
2018-06-24T15:28:22.173Z,14.80
2018-06-24T15:33:20.853Z,14.70
2018-06-24T15:35:52.688Z,14.70
2018-06-24T15:38:22.930Z,14.60
2018-06-24T15:40:51.634Z,14.60
2018-06-24T15:43:21.859Z,14.50
2018-06-24T15:45:50.569Z,14.40
2018-06-24T15:48:19.221Z,14.40
2018-06-24T15:50:48.017Z,14.40
2018-06-24T15:53:16.638Z,14.40
2018-06-24T15:55:45.342Z,14.40
2018-06-24T15:58:16.299Z,14.40
2018-06-24T16:00:53.879Z,14.50
2018-06-24T16:03:23.842Z,14.50
2018-06-24T16:05:53.700Z,14.60
2018-06-24T16:08:28.984Z,14.80
2018-06-24T16:11:00.506Z,14.90
2018-06-24T16:13:29.649Z,15.10
2018-06-24T16:15:59.328Z,15.10
2018-06-24T16:18:29.432Z,15.10
2018-06-24T16:21:04.056Z,15.20
2018-06-24T16:23:32.846Z,15.10
2018-06-24T16:26:04.549Z,15.10
2018-06-24T16:28:35.561Z,15.10
2018-06-24T16:31:04.434Z,15.00
2018-06-24T16:33:33.199Z,15.00
2018-06-24T16:36:01.784Z,15.10
2018-06-24T16:38:30.321Z,15.10
2018-06-24T16:43:28.774Z,15.10
2018-06-24T16:45:59.071Z,15.10
2018-06-24T16:48:28.969Z,15.10
2018-06-24T16:50:58.646Z,15.00
2018-06-24T16:53:28.674Z,15.00
2018-06-24T16:55:58.911Z,14.90
2018-06-24T16:58:28.470Z,14.80
2018-06-24T17:00:58.386Z,14.80
2018-06-24T17:03:28.658Z,14.70
2018-06-24T17:05:58.558Z,14.70
2018-06-24T17:08:28.318Z,14.60
2018-06-24T17:10:57.444Z,14.50
2018-06-24T17:13:26.118Z,14.50
2018-06-24T17:15:54.895Z,14.40
2018-06-24T17:18:23.585Z,14.30
2018-06-24T17:20:52.203Z,14.30
2018-06-24T17:25:49.111Z,14.20
2018-06-24T17:28:17.711Z,14.10
2018-06-24T17:30:46.508Z,14.10
2018-06-24T17:33:16.336Z,14.00
2018-06-24T17:35:45.293Z,13.90
2018-06-24T17:38:17.222Z,13.90
2018-06-24T17:40:45.899Z,13.80
2018-06-24T17:45:43.307Z,13.60
2018-06-24T17:48:11.863Z,13.60
2018-06-24T17:50:40.479Z,13.50
2018-06-24T17:53:09.104Z,13.50
2018-06-24T17:55:38.586Z,13.50
2018-06-24T17:58:08.339Z,13.50
2018-06-24T18:00:37.385Z,13.40
2018-06-24T18:03:07.348Z,13.40
2018-06-24T18:08:05.433Z,13.50
2018-06-24T18:13:02.968Z,13.40
2018-06-24T18:15:32.561Z,13.40
2018-06-24T18:18:01.101Z,13.40
2018-06-24T18:20:29.721Z,13.30
2018-06-24T18:22:58.670Z,13.40
2018-06-24T18:27:55.761Z,13.30
2018-06-24T18:32:52.670Z,13.20
2018-06-24T18:35:21.366Z,13.30
2018-06-24T18:37:50.697Z,13.20
2018-06-24T18:40:19.561Z,13.20
2018-06-24T18:45:17.943Z,13.10
2018-06-24T18:47:46.625Z,13.10
2018-06-24T18:50:15.270Z,13.10
2018-06-24T18:52:43.885Z,13.10
2018-06-24T18:55:12.708Z,13.10
2018-06-24T19:00:10.483Z,13.10
2018-06-24T19:02:40.108Z,13.10
2018-06-24T19:07:39.811Z,13.10
2018-06-24T19:12:38.748Z,13.10
2018-06-24T19:15:10.761Z,13.10
2018-06-24T19:17:42.206Z,13.10
2018-06-24T19:20:10.864Z,13.10
2018-06-24T19:25:09.842Z,13.00
2018-06-24T19:30:08.754Z,13.10
2018-06-24T19:35:06.824Z,13.00
2018-06-24T19:37:35.779Z,13.00
2018-06-24T19:40:05.174Z,13.00
2018-06-24T19:42:33.773Z,13.10
2018-06-24T19:45:02.401Z,13.00
2018-06-24T19:47:31.280Z,13.00
2018-06-24T19:52:28.558Z,13.00
2018-06-24T19:57:26.301Z,13.00
2018-06-24T19:59:54.922Z,13.00
2018-06-24T20:04:51.833Z,13.00
2018-06-24T20:07:21.534Z,13.00
2018-06-24T20:09:50.254Z,13.00
2018-06-24T20:12:18.951Z,13.00
2018-06-24T20:14:47.540Z,13.00
2018-06-24T20:19:44.466Z,13.00
2018-06-24T20:22:13.031Z,13.00
2018-06-24T20:24:41.640Z,13.00
2018-06-24T20:27:10.280Z,13.10
2018-06-24T20:29:38.885Z,13.10
2018-06-24T20:32:07.514Z,13.00
2018-06-24T20:34:36.153Z,13.10
2018-06-24T20:37:05.683Z,13.10
2018-06-24T20:39:35.339Z,13.10
2018-06-24T20:42:04.584Z,13.10
2018-06-24T20:44:33.566Z,13.00
2018-06-24T20:47:02.563Z,13.00
2018-06-24T20:49:31.296Z,13.00
2018-06-24T20:51:59.873Z,13.00
2018-06-24T20:56:56.777Z,13.00
2018-06-24T20:59:25.318Z,13.00
2018-06-24T21:01:54.061Z,13.00
2018-06-24T21:04:22.583Z,13.00
2018-06-24T21:09:19.613Z,13.00
2018-06-24T21:11:48.239Z,13.00
2018-06-24T21:14:16.777Z,13.00
2018-06-24T21:16:45.320Z,13.00
2018-06-24T21:19:13.900Z,13.00
2018-06-24T21:21:43.103Z,13.00
2018-06-24T21:24:11.661Z,13.00
2018-06-24T21:29:08.672Z,13.00
2018-06-24T21:31:37.289Z,13.00
2018-06-24T21:34:06.100Z,13.00
2018-06-24T21:39:03.259Z,13.00
2018-06-24T21:41:32.166Z,13.00
2018-06-24T21:46:29.419Z,13.00
2018-06-24T21:51:26.233Z,13.00
2018-06-24T21:53:54.813Z,13.10
2018-06-24T21:56:23.377Z,13.10
2018-06-24T21:58:51.911Z,13.10
2018-06-24T22:01:20.473Z,13.10
2018-06-24T22:03:49.068Z,13.10
2018-06-24T22:06:17.625Z,13.10
2018-06-24T22:08:46.140Z,13.10
2018-06-24T22:11:16.192Z,13.10
2018-06-24T22:13:45.553Z,13.10
2018-06-24T22:16:15.543Z,13.10
2018-06-24T22:18:44.905Z,13.10
2018-06-24T22:23:42.891Z,13.10
2018-06-24T22:26:11.476Z,13.10
2018-06-24T22:28:40.079Z,13.10
2018-06-24T22:31:08.711Z,13.10
2018-06-24T22:33:37.209Z,13.10
2018-06-24T22:38:35.091Z,13.20
2018-06-24T22:41:04.799Z,13.20
2018-06-24T22:50:59.514Z,13.20
2018-06-24T22:53:28.093Z,13.20
2018-06-24T22:55:56.693Z,13.20
2018-06-24T22:58:25.235Z,13.20
2018-06-24T23:00:53.922Z,13.20
2018-06-24T23:03:22.443Z,13.20
2018-06-24T23:05:51.000Z,13.20
2018-06-24T23:08:19.543Z,13.20
2018-06-24T23:10:48.148Z,13.20
2018-06-24T23:13:16.731Z,13.20
2018-06-24T23:15:45.296Z,13.20
2018-06-24T23:18:13.849Z,13.20
2018-06-24T23:20:42.444Z,13.20
2018-06-24T23:25:39.211Z,13.10
2018-06-24T23:28:07.793Z,13.20
2018-06-24T23:35:34.643Z,13.10
2018-06-24T23:38:03.715Z,13.10
2018-06-24T23:40:32.281Z,13.10
2018-06-24T23:43:00.867Z,13.00
2018-06-24T23:45:29.448Z,13.00
2018-06-24T23:47:58.036Z,13.00
2018-06-24T23:50:26.553Z,13.00
2018-06-24T23:52:55.106Z,13.00
2018-06-24T23:55:23.679Z,13.00
2018-06-24T23:57:52.261Z,13.00
